Airfield :
LOGIN :

Register | Disclaimer

   EN    FR    IT 

 










Legend :    VFR   Marginal VFR   IFR   Intensive IFR   Very Intensive IFR
Visi :
Ceiling :
>= 8 km
>= 3000ft
5 to 8 km
1000 to 3000 ft
1500m to 5 km
500 to 1000 ft
800 to 1500m
200 to 500 ft
< 800m
< 200 ft
Symbols :   Thunderstorms  Fog  Heavy snow  Heavy precipitations  Wind > 20 kt
SIGMETs :     Misc.  Thunderstorms  Icing  Turbulence  Mountain Waves  Volcanic Ashes






- Airport Elevation : 137 ft
- IATA code : THN


ESGT - Trollhattan-Vanersborg

CURRENT METAR :
  • 261420Z AUTO 32008KT 9999 FEW066/// BKN092/// OVC110/// 19/16 Q1019

EXPIRED METARs :
  • 261350Z AUTO VRB03KT 9999 +RA FEW061/// BKN110/// 20/15 Q1019 RERA
  • 261320Z AUTO 13015G28KT 100V180 2100 RA FEW001/// SCT057/// BKN074/// 19/13 Q1020
  • 261250Z AUTO 09012KT 050V130 9999 FEW055/// SCT070/// 24/11 Q1019
  • 261220Z AUTO 02009KT 350V050 9999 SCT061/// 22/15 Q1020
  • 261150Z AUTO 01013KT 9999 FEW057/// 22/16 Q1020
  • 261120Z AUTO 01012KT 9999 NCD 23/15 Q1020
  • 261050Z AUTO 36011KT 9999 NCD 22/15 Q1021
  • 261020Z AUTO 01012KT 9999 NCD 22/15 Q1021
  • 260950Z AUTO 01011KT 9999 FEW150/// 22/16 Q1021

Expired Forecast.



MET'MAP, your aeronautical weather chart ! - Copyright ORBIFLY December 2007 - Disclaimer

ORBIFLY MET'MAP TEAM :

Programming & Development : Alexandra Zaïnal
Original concept : Baudouin d'Aumeries
Technical & hardware support : Manuel Goepfert
Assistance : Marc-Olivier Méhu




SOURCES & CREDITS :

   NOAA